Terminal Aerodrome Forecast
Issued by NWS

Home | Current Version | Previous Version | Graphics & Text | Print | Product List | Glossary On
Versions: 1 2 3 4 5 6 7 8 9 10 11 12 13 14 15 16 17 18 19 20 21 22 23 24 25 26 27 28 29 30
000
FTUS43 KTOP 240800 AAA
TAFMHK
TAF AMD
KMHK 240856Z 2409/2506 10015G21KT P6SM BKN040 OVC080
     FM241000 09013KT 4SM SHRA BR VCTS OVC025CB
     FM241200 09013KT 3SM -DZ BR OVC009
     FM241900 26010KT 6SM BR BKN025
     FM242200 29009KT P6SM SKC=

USA.gov is the U.S. government's official web portal to all federal, state and local government web resources and services.